Time;durP1;ratioP1;P1;durP2;ratioP2;P2;SDS_P1;SDS_P2;PMS_P1;PMS_P2;Temp;Humidity;BMP_temperature;BMP_pressure;BME280_temperature;BME280_humidity;BME280_pressure;Samples;Min_cycle;Max_cycle;Signal;HPM_P1;HPM_P2
2023/02/21 02:15:59;;;;;;;;;;;;;;;3.72;76.02;96939.78;5097672;28;19978;-75
2023/02/21 02:18:28;;;;;;;;;;;;;;;3.67;75.13;96935.06;5096995;28;19945;-76
2023/02/21 02:21:13;;;;;;;;;;;;;;;3.65;75.95;96937.00;5097874;28;19943;-75
2023/02/21 02:23:57;;;;;;;;;;;;;;;3.62;76.09;96945.13;5097310;28;19948;-75
2023/02/21 02:26:41;;;;;;;;;;;;;;;3.62;76.52;96939.94;5096781;28;19958;-75
2023/02/21 02:29:24;;;;;;;;;;;;;;;3.60;77.39;96940.09;5097597;28;19958;-75
2023/02/21 02:31:56;;;;;;;;;;;;;;;3.60;76.81;96937.50;5088184;28;19954;-75
2023/02/21 02:34:34;;;;;;;;;;;;;;;3.60;76.33;96931.50;5097147;28;19957;-75
2023/02/21 02:37:07;;;;;;;;;;;;;;;3.59;76.57;96937.66;5097671;28;19945;-76
2023/02/21 02:39:59;;;;;;;;;;;;;;;3.59;76.54;96922.94;5096799;28;19943;-75
2023/02/21 02:42:43;;;;;;;;;;;;;;;3.59;76.46;96929.88;5085992;28;19955;-75
2023/02/21 02:45:21;;;;;;;;;;;;;;;3.56;75.84;96923.25;5086809;28;19956;-75
2023/02/21 02:47:51;;;;;;;;;;;;;;;3.51;76.04;96925.53;5097151;28;19950;-75
2023/02/21 02:50:18;;;;;;;;;;;;;;;3.49;76.56;96921.47;5096797;28;20429;-76
2023/02/21 02:52:51;;;;;;;;;;;;;;;3.46;77.05;96925.16;5096914;28;19951;-75
2023/02/21 02:55:23;;;;;;;;;;;;;;;3.43;76.09;96918.53;5096670;28;19958;-75
2023/02/21 02:57:50;;;;;;;;;;;;;;;3.38;75.56;96914.78;5096999;28;20328;-75
2023/02/21 03:00:16;;;;;;;;;;;;;;;3.31;75.19;96919.81;5096873;28;19954;-75
2023/02/21 03:02:45;;;;;;;;;;;;;;;3.27;75.44;96923.69;5096719;28;19954;-75
2023/02/21 03:05:22;;;;;;;;;;;;;;;3.23;76.14;96931.00;5095585;28;19943;-75
2023/02/21 03:07:56;;;;;;;;;;;;;;;3.20;76.35;96922.72;5078826;28;19946;-76
2023/02/21 03:10:28;;;;;;;;;;;;;;;3.14;75.66;96918.97;5096431;28;19959;-75
2023/02/21 03:12:54;;;;;;;;;;;;;;;3.08;75.69;96911.84;5096719;28;19952;-75
2023/02/21 03:15:26;;;;;;;;;;;;;;;3.04;76.07;96913.13;5096386;28;20370;-76
2023/02/21 03:18:12;;;;;;;;;;;;;;;3.00;76.16;96917.84;5096672;28;19956;-75
2023/02/21 03:20:39;;;;;;;;;;;;;;;2.95;76.00;96908.91;5095763;28;19942;-75
2023/02/21 03:23:05;;;;;;;;;;;;;;;2.95;77.45;96919.28;5096388;28;20296;-75
2023/02/21 03:25:33;;;;;;;;;;;;;;;2.96;77.86;96919.13;5096342;28;20421;-75
2023/02/21 03:27:59;;;;;;;;;;;;;;;2.97;77.21;96918.13;5096240;28;19946;-75
2023/02/21 03:30:25;;;;;;;;;;;;;;;2.97;75.92;96914.75;5096161;28;19955;-75
2023/02/21 03:32:52;;;;;;;;;;;;;;;2.91;76.31;96907.59;5096122;28;20407;-76
2023/02/21 03:35:19;;;;;;;;;;;;;;;2.88;76.36;96906.16;5096231;28;20330;-76
2023/02/21 03:37:51;;;;;;;;;;;;;;;2.86;77.67;96913.25;5096015;28;19941;-75
2023/02/21 03:40:22;;;;;;;;;;;;;;;2.85;77.80;96909.84;5095848;28;19946;-75
2023/02/21 03:42:49;;;;;;;;;;;;;;;2.86;77.67;96905.50;5095819;28;19970;-75
2023/02/21 03:45:15;;;;;;;;;;;;;;;2.85;77.83;96911.63;5096241;28;19958;-75
2023/02/21 03:47:41;;;;;;;;;;;;;;;2.84;77.95;96899.66;5095788;28;19954;-75
2023/02/21 03:50:07;;;;;;;;;;;;;;;2.84;77.93;96902.25;5095854;28;19960;-75
2023/02/21 03:52:33;;;;;;;;;;;;;;;2.83;77.94;96896.25;5095943;28;19941;-75
2023/02/21 03:54:59;;;;;;;;;;;;;;;2.85;78.30;96901.25;5060745;28;20385;-75
2023/02/21 03:57:25;;;;;;;;;;;;;;;2.88;78.27;96898.38;5095830;28;20022;-75
2023/02/21 03:59:51;;;;;;;;;;;;;;;2.88;77.43;96900.97;5095604;28;20309;-75
2023/02/21 04:02:18;;;;;;;;;;;;;;;2.87;77.87;96901.91;5095566;28;19940;-75
2023/02/21 04:04:44;;;;;;;;;;;;;;;2.89;78.42;96906.94;5095645;28;19949;-75
2023/02/21 04:07:10;;;;;;;;;;;;;;;2.89;78.11;96904.34;5095444;28;19961;-75
2023/02/21 04:09:37;;;;;;;;;;;;;;;2.85;77.91;96896.88;5095297;28;19966;-75
2023/02/21 04:12:03;;;;;;;;;;;;;;;2.85;77.77;96896.88;5095287;28;19951;-75
2023/02/21 04:14:29;;;;;;;;;;;;;;;2.84;78.20;96899.66;5095182;28;19945;-75
2023/02/21 04:16:55;;;;;;;;;;;;;;;2.83;77.77;96898.84;5095621;28;19950;-75
2023/02/21 04:19:21;;;;;;;;;;;;;;;2.81;77.67;96895.59;5095169;28;19951;-75
2023/02/21 04:21:47;;;;;;;;;;;;;;;2.78;77.28;96895.91;5095174;28;19948;-75
2023/02/21 04:24:13;;;;;;;;;;;;;;;2.71;77.21;96900.09;5077160;28;20312;-75
2023/02/21 04:26:39;;;;;;;;;;;;;;;2.68;78.31;96908.16;5095341;28;19961;-75
2023/02/21 04:29:05;;;;;;;;;;;;;;;2.67;78.66;96908.31;5095504;28;20374;-75
2023/02/21 04:31:31;;;;;;;;;;;;;;;2.67;78.95;96908.31;5095042;28;20308;-75
2023/02/21 04:33:57;;;;;;;;;;;;;;;2.67;79.08;96906.56;5095291;28;19947;-75
2023/02/21 04:36:23;;;;;;;;;;;;;;;2.67;79.00;96908.31;5076647;28;19951;-75
2023/02/21 04:38:49;;;;;;;;;;;;;;;2.67;78.35;96903.13;5094634;28;20402;-75
2023/02/21 04:41:16;;;;;;;;;;;;;;;2.64;78.11;96897.31;5095115;28;19940;-75
2023/02/21 04:43:42;;;;;;;;;;;;;;;2.61;77.97;96894.25;5094578;28;19982;-75
2023/02/21 04:46:08;;;;;;;;;;;;;;;2.56;77.77;96894.72;5094513;28;20434;-75
2023/02/21 04:48:34;;;;;;;;;;;;;;;2.53;77.76;96891.63;5076753;28;19942;-75
2023/02/21 04:51:00;;;;;;;;;;;;;;;2.49;78.77;96893.69;5094660;28;20046;-75
2023/02/21 04:53:26;;;;;;;;;;;;;;;2.47;78.67;96890.44;5094698;28;19944;-75
2023/02/21 04:55:52;;;;;;;;;;;;;;;2.44;79.03;96894.16;5094458;28;19946;-75
2023/02/21 04:58:18;;;;;;;;;;;;;;;2.44;78.88;96885.59;5076245;28;19948;-75
2023/02/21 05:00:44;;;;;;;;;;;;;;;2.42;79.04;96890.13;5094641;28;20043;-75
2023/02/21 05:03:10;;;;;;;;;;;;;;;2.40;79.27;96886.88;5094416;28;19955;-76
2023/02/21 05:05:35;;;;;;;;;;;;;;;2.38;79.19;96883.63;5094411;28;20025;-75
2023/02/21 05:08:01;;;;;;;;;;;;;;;2.33;79.09;96878.94;5094265;28;19948;-75
2023/02/21 05:10:27;;;;;;;;;;;;;;;2.29;79.32;96877.63;5094131;28;19962;-75
2023/02/21 05:12:53;;;;;;;;;;;;;;;2.26;79.29;96875.31;5094588;28;19949;-75
2023/02/21 05:15:19;;;;;;;;;;;;;;;2.27;80.04;96870.94;5094455;28;20327;-75
2023/02/21 05:17:46;;;;;;;;;;;;;;;2.27;79.41;96873.53;5094225;28;19954;-75
2023/02/21 05:20:11;;;;;;;;;;;;;;;2.23;79.88;96880.81;5094056;28;19940;-75
2023/02/21 05:22:39;;;;;;;;;;;;;;;2.21;80.26;96883.56;5094211;28;19953;-75
2023/02/21 05:25:06;;;;;;;;;;;;;;;2.19;80.69;96879.50;5094074;28;19943;-75
2023/02/21 05:27:33;;;;;;;;;;;;;;;2.18;80.42;96883.88;5093886;28;20410;-75
2023/02/21 05:29:59;;;;;;;;;;;;;;;2.17;80.32;96884.81;5093355;28;19960;-75
2023/02/21 05:32:28;;;;;;;;;;;;;;;2.15;80.25;96875.59;5094232;28;19985;-75
2023/02/21 05:34:54;;;;;;;;;;;;;;;2.13;80.29;96880.13;5093959;28;19948;-76
2023/02/21 05:37:20;;;;;;;;;;;;;;;2.11;80.39;96888.03;5093431;28;19941;-76
2023/02/21 05:39:46;;;;;;;;;;;;;;;2.08;80.13;96884.91;5093693;28;19958;-75
2023/02/21 05:42:12;;;;;;;;;;;;;;;2.05;79.96;96883.47;5076012;28;19948;-75
2023/02/21 05:44:38;;;;;;;;;;;;;;;2.02;79.61;96888.94;5093752;28;20434;-75
2023/02/21 05:47:06;;;;;;;;;;;;;;;1.97;79.90;96889.38;5094196;28;19945;-75
2023/02/21 05:49:32;;;;;;;;;;;;;;;1.95;79.84;96887.94;5093067;28;19945;-75
2023/02/21 05:51:57;;;;;;;;;;;;;;;1.93;79.84;96885.50;5093671;28;19951;-75
2023/02/21 05:54:23;;;;;;;;;;;;;;;1.94;80.40;96896.66;5094035;28;19949;-75
2023/02/21 05:56:50;;;;;;;;;;;;;;;1.91;80.56;96884.03;5094161;28;19950;-75
2023/02/21 05:59:18;;;;;;;;;;;;;;;1.91;80.93;96891.78;5093627;28;19939;-75
2023/02/21 06:01:45;;;;;;;;;;;;;;;1.92;81.09;96896.00;5093652;28;19943;-76
2023/02/21 06:04:10;;;;;;;;;;;;;;;1.91;80.56;96889.19;5084636;28;19971;-75
2023/02/21 06:06:36;;;;;;;;;;;;;;;1.88;80.76;96886.94;5093778;28;20008;-75
2023/02/21 06:09:03;;;;;;;;;;;;;;;1.85;80.55;96884.63;5093514;28;20315;-75
2023/02/21 06:11:32;;;;;;;;;;;;;;;1.82;80.52;96886.56;5093509;28;19960;-75
2023/02/21 06:13:58;;;;;;;;;;;;;;;1.81;80.31;96891.91;5093642;28;19949;-75
2023/02/21 06:16:25;;;;;;;;;;;;;;;1.78;80.80;96889.59;5093692;28;20414;-75
2023/02/21 06:18:52;;;;;;;;;;;;;;;1.77;80.77;96886.22;5093303;28;19946;-75
2023/02/21 06:21:18;;;;;;;;;;;;;;;1.75;80.88;96893.31;5093605;28;19951;-75
2023/02/21 06:23:44;;;;;;;;;;;;;;;1.74;81.33;96896.88;5093473;28;20442;-75
2023/02/21 06:26:11;;;;;;;;;;;;;;;1.75;82.73;96901.06;5093448;28;19948;-75
2023/02/21 06:28:37;;;;;;;;;;;;;;;1.78;82.51;96903.34;5093310;28;19967;-75
2023/02/21 06:31:03;;;;;;;;;;;;;;;1.79;81.56;96892.03;5093350;28;19969;-75
2023/02/21 06:33:29;;;;;;;;;;;;;;;1.81;81.61;96890.13;5093176;28;19945;-75
2023/02/21 06:35:55;;;;;;;;;;;;;;;1.81;81.26;96887.53;5093185;28;19951;-75
2023/02/21 06:38:21;;;;;;;;;;;;;;;1.85;81.12;96889.78;5075151;28;19947;-75
2023/02/21 06:40:47;;;;;;;;;;;;;;;1.86;81.31;96884.47;5096469;28;19944;-75
2023/02/21 06:43:13;;;;;;;;;;;;;;;1.89;80.89;96880.78;5097256;28;20140;-75
2023/02/21 06:45:38;;;;;;;;;;;;;;;1.90;80.95;96885.81;5097110;28;20036;-74
2023/02/21 06:48:04;;;;;;;;;;;;;;;1.92;80.55;96883.06;5096968;28;19947;-75
2023/02/21 06:50:30;;;;;;;;;;;;;;;2.02;80.74;96884.59;5097073;28;20415;-74
2023/02/21 06:52:56;;;;;;;;;;;;;;;2.33;79.61;96880.69;5097319;28;20350;-75
2023/02/21 06:55:22;;;;;;;;;;;;;;;2.60;79.46;96882.25;5096789;28;20326;-75
2023/02/21 06:57:48;;;;;;;;;;;;;;;2.85;78.80;96875.34;5078915;28;19944;-75
2023/02/21 07:00:17;;;;;;;;;;;;;;;3.01;78.14;96864.22;5096791;28;19944;-75
2023/02/21 07:02:43;;;;;;;;;;;;;;;3.05;78.08;96868.94;5096736;28;19944;-75
2023/02/21 07:05:09;;;;;;;;;;;;;;;3.17;78.18;96859.06;5096727;28;19953;-75
2023/02/21 07:07:35;;;;;;;;;;;;;;;3.63;78.07;96859.41;5096533;28;19946;-75
2023/02/21 07:10:01;;;;;;;;;;;;;;;4.34;76.97;96851.75;5096655;28;20414;-75
2023/02/21 07:12:27;;;;;;;;;;;;;;;5.09;74.82;96843.38;5097064;28;19947;-75
2023/02/21 07:14:53;;;;;;;;;;;;;;;5.63;71.64;96831.28;5096325;28;19945;-76
2023/02/21 07:17:19;;;;;;;;;;;;;;;5.88;70.26;96824.03;5096495;28;19939;-75
2023/02/21 07:19:45;;;;;;;;;;;;;;;6.30;69.92;96814.81;5078256;28;20004;-75
2023/02/21 07:22:11;;;;;;;;;;;;;;;6.63;68.12;96812.56;5077411;28;19954;-75
2023/02/21 07:24:37;;;;;;;;;;;;;;;6.98;67.09;96806.72;5077963;28;20050;-75
2023/02/21 07:27:03;;;;;;;;;;;;;;;7.19;65.92;96801.50;5095652;28;19953;-76
2023/02/21 07:29:29;;;;;;;;;;;;;;;7.44;65.22;96798.50;5095641;28;19941;-76
2023/02/21 07:31:56;;;;;;;;;;;;;;;7.77;64.30;96803.97;5095356;28;19975;-76
2023/02/21 07:34:22;;;;;;;;;;;;;;;8.03;63.89;96794.66;5095322;28;19950;-76
2023/02/21 07:36:49;;;;;;;;;;;;;;;8.12;62.01;96801.31;5095984;28;20470;-76
2023/02/21 07:39:14;;;;;;;;;;;;;;;8.21;62.38;96805.41;5095727;28;19947;-76
2023/02/21 07:41:40;;;;;;;;;;;;;;;8.47;62.57;96798.72;5094906;28;20393;-76
2023/02/21 07:44:06;;;;;;;;;;;;;;;8.64;61.34;96794.72;5094989;28;20359;-76
2023/02/21 07:46:33;;;;;;;;;;;;;;;8.63;60.69;96797.53;5095052;28;20400;-76
2023/02/21 07:48:59;;;;;;;;;;;;;;;8.65;59.45;96793.75;5095211;28;19943;-76
2023/02/21 07:51:29;;;;;;;;;;;;;;;8.57;61.16;96807.00;5095393;28;20371;-76
2023/02/21 07:53:55;;;;;;;;;;;;;;;8.54;60.55;96813.41;5095962;28;19950;-76
2023/02/21 07:56:21;;;;;;;;;;;;;;;8.53;61.62;96811.78;5095667;28;19941;-76
2023/02/21 07:58:47;;;;;;;;;;;;;;;8.61;61.38;96807.38;5095187;28;19953;-76
2023/02/21 08:01:13;;;;;;;;;;;;;;;8.62;61.47;96814.25;5095826;28;19985;-76
2023/02/21 08:03:39;;;;;;;;;;;;;;;8.69;61.27;96815.06;5095444;28;20050;-76
2023/02/21 08:06:06;;;;;;;;;;;;;;;8.73;61.41;96811.88;5095756;28;19948;-76
2023/02/21 08:08:32;;;;;;;;;;;;;;;8.88;61.60;96809.09;5095477;28;19939;-76
2023/02/21 08:10:58;;;;;;;;;;;;;;;9.14;60.32;96810.94;5095271;28;20508;-76
2023/02/21 08:13:24;;;;;;;;;;;;;;;9.28;60.38;96806.53;5095958;28;19950;-76
2023/02/21 08:15:50;;;;;;;;;;;;;;;9.23;60.36;96816.78;5077197;28;20392;-76
2023/02/21 08:18:19;;;;;;;;;;;;;;;9.33;60.35;96811.16;5094914;28;19946;-76
2023/02/21 08:20:45;;;;;;;;;;;;;;;9.53;60.64;96811.16;5095597;28;19942;-75
2023/02/21 08:23:11;;;;;;;;;;;;;;;9.62;59.12;96807.34;5095221;28;19954;-76
2023/02/21 08:25:37;;;;;;;;;;;;;;;9.66;58.34;96799.88;5077239;28;20395;-76
2023/02/21 08:28:03;;;;;;;;;;;;;;;9.79;59.71;96807.72;5095082;28;19948;-76
2023/02/21 08:30:29;;;;;;;;;;;;;;;10.00;59.33;96811.13;5076861;28;20017;-76
2023/02/21 08:32:55;;;;;;;;;;;;;;;9.98;59.00;96806.09;5077222;28;20013;-76
2023/02/21 08:35:21;;;;;;;;;;;;;;;10.15;59.96;96824.78;5094888;28;19954;-76
2023/02/21 08:37:47;;;;;;;;;;;;;;;10.29;59.32;96809.81;5076964;28;20004;-76
2023/02/21 08:40:14;;;;;;;;;;;;;;;10.38;58.27;96800.75;5094858;28;19954;-76
2023/02/21 08:42:40;;;;;;;;;;;;;;;10.21;57.03;96799.56;5094810;28;20421;-76
2023/02/21 08:45:07;;;;;;;;;;;;;;;10.24;59.25;96814.88;5095083;28;19947;-77
2023/02/21 08:47:34;;;;;;;;;;;;;;;10.27;58.89;96804.78;5094676;28;20297;-76
2023/02/21 08:50:00;;;;;;;;;;;;;;;10.18;59.41;96811.25;5094726;28;20318;-76
2023/02/21 08:52:26;;;;;;;;;;;;;;;10.18;58.36;96810.47;5094487;28;19942;-76
2023/02/21 08:54:52;;;;;;;;;;;;;;;10.30;58.56;96814.88;5094772;28;19952;-76
2023/02/21 08:57:18;;;;;;;;;;;;;;;10.46;59.12;96808.38;5094546;28;19953;-76
2023/02/21 08:59:44;;;;;;;;;;;;;;;10.48;58.47;96810.81;5094765;28;19952;-76
2023/02/21 09:02:14;;;;;;;;;;;;;;;10.36;58.96;96815.88;5093829;28;19963;-76
2023/02/21 09:04:40;;;;;;;;;;;;;;;10.43;58.42;96802.75;5094445;28;20328;-76
2023/02/21 09:07:06;;;;;;;;;;;;;;;10.40;57.93;96811.84;5094341;28;19950;-76
2023/02/21 09:09:32;;;;;;;;;;;;;;;10.26;59.82;96818.09;5094045;28;19944;-75
2023/02/21 09:11:58;;;;;;;;;;;;;;;10.25;59.25;96811.25;5094241;28;19973;-76
2023/02/21 09:14:24;;;;;;;;;;;;;;;10.39;60.41;96822.53;5094417;28;20457;-76
2023/02/21 09:16:50;;;;;;;;;;;;;;;10.60;59.66;96809.13;5094163;28;20468;-76
2023/02/21 09:19:15;;;;;;;;;;;;;;;10.79;59.05;96798.75;5094008;28;19974;-76
2023/02/21 09:21:45;;;;;;;;;;;;;;;10.74;58.24;96800.19;5094433;28;19949;-76
2023/02/21 09:24:11;;;;;;;;;;;;;;;10.73;60.42;96814.31;5093848;28;19947;-76
2023/02/21 09:26:36;;;;;;;;;;;;;;;10.80;60.31;96806.41;5093893;28;19965;-76
2023/02/21 09:29:02;;;;;;;;;;;;;;;10.80;59.71;96806.41;5075848;28;19940;-75
2023/02/21 09:31:28;;;;;;;;;;;;;;;10.67;59.37;96807.28;5093849;28;20007;-76
2023/02/21 09:33:54;;;;;;;;;;;;;;;10.57;59.98;96806.94;5094160;28;19977;-76
2023/02/21 09:36:22;;;;;;;;;;;;;;;10.64;61.28;96812.13;5094056;28;20302;-76
2023/02/21 09:38:49;;;;;;;;;;;;;;;10.79;60.09;96802.16;5093307;28;19953;-75
2023/02/21 09:41:16;;;;;;;;;;;;;;;10.80;60.39;96803.78;5094426;28;19946;-76
2023/02/21 09:43:47;;;;;;;;;;;;;;;10.88;60.71;96800.91;5093677;28;20315;-76
2023/02/21 09:46:19;;;;;;;;;;;;;;;11.06;59.91;96800.19;5094121;28;19958;-76
2023/02/21 09:48:46;;;;;;;;;;;;;;;11.18;59.85;96790.63;5075956;28;19953;-76
2023/02/21 09:51:12;;;;;;;;;;;;;;;11.21;59.40;96792.00;5093525;28;19958;-76
2023/02/21 09:53:41;;;;;;;;;;;;;;;11.09;57.38;96789.28;5094250;28;19954;-76
2023/02/21 09:56:11;;;;;;;;;;;;;;;11.13;59.82;96800.16;5075665;28;19950;-76
2023/02/21 09:58:39;;;;;;;;;;;;;;;11.35;59.17;96790.09;5081255;28;19954;-76
2023/02/21 10:01:10;;;;;;;;;;;;;;;11.56;59.34;96796.81;5093925;28;19950;-76
2023/02/21 10:03:39;;;;;;;;;;;;;;;11.69;58.26;96788.78;5093886;28;19941;-76
2023/02/21 10:06:24;;;;;;;;;;;;;;;11.71;57.73;96781.50;5093651;28;19973;-76
2023/02/21 10:08:56;;;;;;;;;;;;;;;11.69;57.24;96780.91;5085536;28;19943;-76
2023/02/21 10:11:33;;;;;;;;;;;;;;;11.69;55.76;96783.53;5093395;28;19954;-76
2023/02/21 10:14:04;;;;;;;;;;;;;;;11.82;57.22;96784.44;5095069;28;19967;-76
2023/02/21 10:16:33;;;;;;;;;;;;;;;12.04;53.19;96775.16;5098320;28;19946;-76
2023/02/21 10:19:18;;;;;;;;;;;;;;;12.01;52.82;96787.91;5097641;28;19951;-76
2023/02/21 10:21:46;;;;;;;;;;;;;;;12.02;54.64;96784.28;5097598;28;19941;-76
2023/02/21 10:24:19;;;;;;;;;;;;;;;12.13;53.66;96781.72;5097606;28;19944;-76
2023/02/21 10:26:57;;;;;;;;;;;;;;;12.24;55.66;96789.91;5097415;28;19944;-76
2023/02/21 10:29:24;;;;;;;;;;;;;;;12.45;55.20;96778.13;5096794;28;20376;-76
2023/02/21 10:31:59;;;;;;;;;;;;;;;12.63;54.56;96775.47;5097348;28;19973;-76
2023/02/21 10:34:27;;;;;;;;;;;;;;;12.73;54.64;96772.31;5097631;28;19951;-76
2023/02/21 10:36:54;;;;;;;;;;;;;;;12.87;53.07;96772.91;5097039;28;19943;-76
2023/02/21 10:39:24;;;;;;;;;;;;;;;12.88;53.47;96777.16;5097171;28;19948;-76
2023/02/21 10:41:50;;;;;;;;;;;;;;;12.88;51.87;96775.34;5097628;28;20374;-76
2023/02/21 10:44:21;;;;;;;;;;;;;;;13.01;51.94;96771.69;5096946;28;20348;-76
2023/02/21 10:46:49;;;;;;;;;;;;;;;13.16;50.59;96776.53;5097577;28;19953;-76
2023/02/21 10:49:15;;;;;;;;;;;;;;;13.33;53.86;96777.53;5097099;28;19959;-76
2023/02/21 10:51:41;;;;;;;;;;;;;;;13.56;51.62;96775.94;5096964;28;20420;-76
2023/02/21 10:54:18;;;;;;;;;;;;;;;13.58;49.62;96766.78;5096132;28;21383;-76
2023/02/21 10:56:44;;;;;;;;;;;;;;;13.58;53.10;96766.78;5097334;28;20338;-76
2023/02/21 10:59:18;;;;;;;;;;;;;;;13.59;50.28;96767.59;5078913;28;19953;-76
2023/02/21 11:01:44;;;;;;;;;;;;;;;13.62;49.01;96758.41;5096932;28;19944;-76
2023/02/21 11:04:19;;;;;;;;;;;;;;;13.72;50.27;96764.72;5096625;28;19959;-76
2023/02/21 11:06:46;;;;;;;;;;;;;;;13.85;48.72;96757.63;5096729;28;19952;-76
2023/02/21 11:09:33;;;;;;;;;;;;;;;13.97;51.93;96759.19;5096473;28;20384;-76
2023/02/21 11:12:01;;;;;;;;;;;;;;;14.13;48.73;96748.97;5096606;28;19965;-76
2023/02/21 11:14:28;;;;;;;;;;;;;;;14.20;45.55;96745.16;5096657;28;19954;-76
2023/02/21 11:17:06;;;;;;;;;;;;;;;14.36;48.32;96756.84;5096315;28;19943;-76
2023/02/21 11:19:41;;;;;;;;;;;;;;;14.38;48.93;96749.50;5096312;28;19944;-76
2023/02/21 11:22:08;;;;;;;;;;;;;;;14.57;46.91;96738.75;5096021;28;19947;-76
2023/02/21 11:24:43;;;;;;;;;;;;;;;14.78;48.92;96734.66;5096543;28;19949;-76
2023/02/21 11:27:11;;;;;;;;;;;;;;;15.02;47.67;96730.84;5095644;28;19938;-76
2023/02/21 11:29:40;;;;;;;;;;;;;;;15.17;46.31;96717.09;5096099;28;19954;-76
2023/02/21 11:32:28;;;;;;;;;;;;;;;15.31;45.87;96716.78;5096161;28;19965;-76
2023/02/21 11:35:02;;;;;;;;;;;;;;;15.51;44.09;96713.63;5078460;28;20316;-76
2023/02/21 11:37:28;;;;;;;;;;;;;;;15.53;44.86;96717.63;5095822;28;19953;-77
2023/02/21 11:39:54;;;;;;;;;;;;;;;15.74;45.76;96710.81;5096040;28;19966;-76
2023/02/21 11:42:23;;;;;;;;;;;;;;;15.93;44.96;96705.22;5095953;28;20387;-76
2023/02/21 11:45:01;;;;;;;;;;;;;;;16.05;42.44;96705.91;5095792;28;19956;-76
2023/02/21 11:47:34;;;;;;;;;;;;;;;16.07;42.88;96697.75;5095904;28;19938;-76
2023/02/21 11:50:04;;;;;;;;;;;;;;;16.19;42.40;96687.81;5096003;28;20330;-76
2023/02/21 11:52:36;;;;;;;;;;;;;;;16.42;44.09;96692.84;5095976;28;20330;-76
2023/02/21 11:55:02;;;;;;;;;;;;;;;16.57;43.47;96683.47;5095846;28;19984;-76
2023/02/21 11:57:34;;;;;;;;;;;;;;;16.55;42.43;96677.63;5095703;28;19943;-76
2023/02/21 12:00:00;;;;;;;;;;;;;;;16.56;42.44;96673.91;5095838;28;19952;-76
2023/02/21 12:02:46;;;;;;;;;;;;;;;16.60;42.17;96662.56;5095694;28;19938;-76
2023/02/21 12:05:21;;;;;;;;;;;;;;;16.76;41.90;96668.81;5095520;28;19942;-76
2023/02/21 12:08:03;;;;;;;;;;;;;;;16.91;42.58;96656.78;5095991;28;20302;-76
2023/02/21 12:10:41;;;;;;;;;;;;;;;17.01;42.08;96657.66;5095492;28;19946;-76
2023/02/21 12:13:16;;;;;;;;;;;;;;;16.98;42.31;96657.34;5095647;28;20027;-76
2023/02/21 12:15:45;;;;;;;;;;;;;;;16.96;41.10;96651.50;5095463;28;19957;-76
2023/02/21 12:18:14;;;;;;;;;;;;;;;16.81;37.63;96641.59;5095325;28;19943;-76
2023/02/21 12:20:49;;;;;;;;;;;;;;;16.71;39.69;96642.25;5095575;28;19954;-76
2023/02/21 12:23:24;;;;;;;;;;;;;;;16.72;38.69;96635.13;5095159;28;19946;-76
2023/02/21 12:25:57;;;;;;;;;;;;;;;16.72;39.74;96633.28;5087345;28;19955;-76
2023/02/21 12:28:45;;;;;;;;;;;;;;;16.70;42.57;96632.75;5095683;28;19946;-76
2023/02/21 12:31:11;;;;;;;;;;;;;;;16.76;39.41;96625.66;5094374;28;19958;-76
2023/02/21 12:33:43;;;;;;;;;;;;;;;16.82;41.10;96614.88;5095193;28;19948;-76
2023/02/21 12:36:16;;;;;;;;;;;;;;;16.93;41.12;96615.72;5095413;28;20288;-76
2023/02/21 12:38:50;;;;;;;;;;;;;;;16.92;44.05;96608.03;5093998;28;19964;-76
2023/02/21 12:41:29;;;;;;;;;;;;;;;16.83;39.40;96603.19;5094831;28;19943;-76
2023/02/21 12:44:16;;;;;;;;;;;;;;;16.88;38.63;96601.66;5095143;28;20053;-76
2023/02/21 12:46:48;;;;;;;;;;;;;;;16.83;41.22;96605.84;5094205;28;20326;-76
2023/02/21 12:49:28;;;;;;;;;;;;;;;16.87;40.76;96600.84;5094844;28;19953;-76
2023/02/21 12:52:00;;;;;;;;;;;;;;;16.80;40.05;96595.78;5094550;28;19959;-77
2023/02/21 12:54:42;;;;;;;;;;;;;;;16.70;39.02;96593.00;5060144;28;20404;-76
2023/02/21 12:57:20;;;;;;;;;;;;;;;16.66;41.21;96585.84;5094732;28;19959;-76
2023/02/21 12:59:53;;;;;;;;;;;;;;;16.60;42.20;96577.03;5094853;28;19941;-76
2023/02/21 13:02:25;;;;;;;;;;;;;;;16.53;38.23;96577.25;5094550;28;19954;-76
2023/02/21 13:04:53;;;;;;;;;;;;;;;16.62;40.76;96578.38;5094538;28;19944;-76
2023/02/21 13:07:24;;;;;;;;;;;;;;;16.69;39.84;96575.50;5094563;28;19943;-76
2023/02/21 13:10:02;;;;;;;;;;;;;;;16.64;39.63;96563.03;5094308;28;19942;-77
2023/02/21 13:12:44;;;;;;;;;;;;;;;16.68;40.28;96559.91;5094825;28;19991;-76
2023/02/21 13:15:24;;;;;;;;;;;;;;;16.65;39.50;96550.59;5081894;28;19961;-76
2023/02/21 13:17:56;;;;;;;;;;;;;;;16.64;40.68;96544.50;5082911;28;19946;-77
2023/02/21 13:20:24;;;;;;;;;;;;;;;16.68;40.34;96544.00;5081455;28;19940;-77
2023/02/21 13:26:12;;;;;;;;;;;;;;;16.72;38.72;96529.22;5094074;28;20307;-77
2023/02/21 13:28:40;;;;;;;;;;;;;;;16.71;39.96;96524.97;5075991;28;20434;-77
2023/02/21 13:31:16;;;;;;;;;;;;;;;16.76;38.65;96525.78;5093939;28;19952;-77
2023/02/21 13:33:53;;;;;;;;;;;;;;;16.83;39.74;96515.00;5093715;28;19953;-77
2023/02/21 13:36:22;;;;;;;;;;;;;;;16.96;38.81;96517.19;5094077;28;19950;-77
2023/02/21 13:38:59;;;;;;;;;;;;;;;17.09;39.13;96512.50;5093923;28;20339;-77
2023/02/21 13:41:27;;;;;;;;;;;;;;;17.13;38.31;96510.91;5093451;28;19949;-77
2023/02/21 13:43:54;;;;;;;;;;;;;;;17.07;38.47;96510.09;5093891;28;20435;-77
2023/02/21 13:46:23;;;;;;;;;;;;;;;17.04;39.66;96502.66;5075701;28;19948;-77
2023/02/21 13:49:08;;;;;;;;;;;;;;;17.14;39.82;96489.47;5093467;28;19948;-78
2023/02/21 13:51:51;;;;;;;;;;;;;;;17.09;36.46;96492.09;5093790;28;19969;-77
2023/02/21 13:54:22;;;;;;;;;;;;;;;17.06;39.00;96491.81;5093219;28;19938;-77
2023/02/21 13:56:48;;;;;;;;;;;;;;;17.12;38.43;96475.69;5093666;28;19950;-77
2023/02/21 13:59:31;;;;;;;;;;;;;;;17.22;39.41;96482.88;5093885;28;20317;-77
2023/02/21 14:02:15;;;;;;;;;;;;;;;17.33;39.86;96481.06;5082068;28;19948;-77
2023/02/21 14:04:56;;;;;;;;;;;;;;;17.40;38.01;96466.50;5093742;28;20430;-77
2023/02/21 14:07:48;;;;;;;;;;;;;;;17.46;39.78;96469.97;5093560;28;20279;-77
2023/02/21 14:10:32;;;;;;;;;;;;;;;17.41;38.06;96467.31;5062302;28;19938;-77
2023/02/21 14:13:00;;;;;;;;;;;;;;;17.23;37.16;96460.63;5093887;28;19979;-77
2023/02/21 14:15:56;;;;;;;;;;;;;;;17.07;38.53;96464.25;5093653;28;20392;-77
2023/02/21 14:18:29;;;;;;;;;;;;;;;17.04;38.66;96462.94;5080499;28;19955;-77
2023/02/21 14:20:56;;;;;;;;;;;;;;;17.09;38.96;96460.28;5083919;28;19948;-77
2023/02/21 14:23:30;;;;;;;;;;;;;;;17.15;38.74;96451.31;5093514;28;19947;-77
2023/02/21 14:26:01;;;;;;;;;;;;;;;17.15;38.95;96453.16;5093585;28;19950;-77
2023/02/21 14:28:45;;;;;;;;;;;;;;;17.14;36.74;96448.94;5075592;28;19942;-78
2023/02/21 14:31:12;;;;;;;;;;;;;;;17.14;38.15;96447.06;5083937;28;20343;-77
2023/02/21 14:33:38;;;;;;;;;;;;;;;17.15;39.04;96447.88;5092672;28;20326;-77
2023/02/21 14:36:06;;;;;;;;;;;;;;;17.16;38.26;96438.88;5093341;28;19943;-77
2023/02/21 14:38:41;;;;;;;;;;;;;;;17.19;38.38;96441.78;5093471;28;20315;-77
2023/02/21 14:41:32;;;;;;;;;;;;;;;17.17;37.73;96435.16;5093473;28;19955;-77
2023/02/21 14:44:31;;;;;;;;;;;;;;;17.07;37.69;96425.31;5093470;28;19980;-77
2023/02/21 14:47:12;;;;;;;;;;;;;;;16.98;37.96;96427.66;5059128;28;19956;-77
2023/02/21 14:49:55;;;;;;;;;;;;;;;16.96;38.35;96421.03;5093937;28;19951;-77
2023/02/21 14:52:30;;;;;;;;;;;;;;;16.94;38.76;96423.13;5093273;28;19970;-77
2023/02/21 14:55:08;;;;;;;;;;;;;;;16.82;37.69;96412.78;5093352;28;19938;-77
2023/02/21 14:57:37;;;;;;;;;;;;;;;16.75;38.62;96417.47;5093165;28;19956;-77
2023/02/21 15:00:06;;;;;;;;;;;;;;;16.74;39.38;96414.03;5093062;28;20308;-77
2023/02/21 15:02:40;;;;;;;;;;;;;;;16.72;38.24;96418.78;5096582;28;19991;-77
2023/02/21 15:05:06;;;;;;;;;;;;;;;16.69;38.57;96414.00;5096813;28;19956;-77
2023/02/21 15:07:38;;;;;;;;;;;;;;;16.63;38.19;96415.84;5096512;28;19944;-77
2023/02/21 15:10:22;;;;;;;;;;;;;;;16.58;39.12;96420.28;5096583;28;19957;-77
2023/02/21 15:12:52;;;;;;;;;;;;;;;16.55;39.31;96411.03;5089370;28;19963;-77
2023/02/21 15:15:21;;;;;;;;;;;;;;;16.51;39.33;96415.22;5096681;28;20425;-77
2023/02/21 15:18:07;;;;;;;;;;;;;;;16.45;38.78;96405.66;5095724;28;19942;-77
2023/02/21 15:20:35;;;;;;;;;;;;;;;16.39;40.31;96406.69;5096399;28;19950;-77
2023/02/21 15:23:01;;;;;;;;;;;;;;;16.31;39.71;96413.25;5096377;28;19947;-77
2023/02/21 15:25:27;;;;;;;;;;;;;;;16.25;39.88;96406.31;5096185;28;19951;-77